Main page
METAR-TAF:

METAR-TAF

Airports :

Caledonia County Airport

Lyndonville, Vermont, United States

latitude: 44-34-09N, longitude: 072-01-05W, elevation: 1187 ft

Current weather observation

The report was made 9 minutes ago, at 18:15 UTC
Wind 6 mph from the Southwest
Temperature 32°F
Humidity 100%
Pressure 29.14 in. Hg
Visibility: 0.25 miles
Overcast at a height of 300 ft
snow

METAR: KCDA 271815Z AUTO 23005KT 1/4SM SN OVC003 00/00 A2914 RMK AO2 T00030000

Time: 13:24 (18:24 UTC)


TAF: missing

Weather observations and forecasts of more than 4000 airports (METAR and TAF reports).

The available stations are represented by yellow and red dots on the map.

Hover mouse over dot to see the name of the station.

Then click to see weather observations and forecasts.

To change the map : click on the green buttons with a black cross to zoom in, on the green button with a dash to zoom out, or on the green arrows for adjacent maps.


METAR-TAF: